This is the latest recevied weather packets stored in our database for station/object KB3FKJ. If no packets are shown the sender has not sent any weather packets the latest 10 day(s).
| Time | Temp. | Humidity | Pressure | Rain* | Wind** | Luminosity | Snow |
|---|---|---|---|---|---|---|---|
| 1777935890 | 21.67° C | 43% | 1006.3 hPa | 0 mm | - | 63 W/m² | - |
| 1777935589 | 21.67° C | 44% | 1006.2 hPa | 0 mm | - | 31 W/m² | - |
| 1777935285 | 22.22° C | 44% | 1006.3 hPa | 0 mm | - | 42 W/m² | - |
| 1777934982 | 22.22° C | 43% | 1006.4 hPa | 0 mm | - | 93 W/m² | - |
| 1777934679 | 22.78° C | 43% | 1006.1 hPa | 0 mm | - | 50 W/m² | - |
| 1777934376 | 22.78° C | 41% | 1006.2 hPa | 0 mm | - | 116 W/m² | - |
| 1777934072 | 21.67° C | 43% | 1006.1 hPa | 0 mm | - | 119 W/m² | - |
| 1777933768 | 21.67° C | 43% | 1006.2 hPa | 0 mm | - | 43 W/m² | - |
| 1777933466 | 21.67° C | 43% | 1006.2 hPa | 0 mm | - | 37 W/m² | - |
| 1777933163 | 21.67° C | 43% | 1006.1 hPa | 0 mm | - | 53 W/m² | - |
| 1777932860 | 21.67° C | 42% | 1006.1 hPa | 0 mm | - | 46 W/m² | - |
| 1777932557 | 22.22° C | 41% | 1006 hPa | 0 mm | - | 184 W/m² | - |
| 1777932253 | 22.22° C | 42% | 1006 hPa | 0 mm | - | 53 W/m² | - |
| 1777931951 | 23.33° C | 39% | 1006.1 hPa | 0 mm | - | 56 W/m² | - |
| 1777931647 | 23.33° C | 40% | 1006.2 hPa | 0 mm | - | 210 W/m² | - |
| 1777931343 | 23.33° C | 40% | 1006.2 hPa | 0 mm | - | 261 W/m² | - |
| 1777931040 | 23.33° C | 39% | 1006.3 hPa | 0 mm | - | 272 W/m² | - |
| 1777930737 | 23.89° C | 38% | 1006.2 hPa | 0 mm | - | 283 W/m² | - |
| 1777930433 | 23.33° C | 40% | 1006.2 hPa | 0 mm | - | 308 W/m² | - |
| 1777930130 | 22.78° C | 39% | 1006.1 hPa | 0 mm | - | 320 W/m² | - |
| 1777929826 | 23.33° C | 38% | 1006 hPa | 0 mm | - | 333 W/m² | - |
| 1777929524 | 23.89° C | 38% | 1005.9 hPa | 0 mm | - | 67 W/m² | - |
| 1777929220 | 23.89° C | 38% | 1006.1 hPa | 0 mm | - | 378 W/m² | - |
| 1777928918 | 23.89° C | 37% | 1006.2 hPa | 0 mm | - | 91 W/m² | - |
| 1777928615 | 23.89° C | 39% | 1006.2 hPa | 0 mm | - | 342 W/m² | - |
* Rain latest hour (hover to see other rain measurements)
** Current wind speed in m/s (hover to see current wind gust speed)